Time;durP1;ratioP1;P1;durP2;ratioP2;P2;SDS_P1;SDS_P2;PMS_P1;PMS_P2;Temp;Humidity;BMP_temperature;BMP_pressure;BME280_temperature;BME280_humidity;BME280_pressure;Samples;Min_cycle;Max_cycle;Signal;HPM_P1;HPM_P2
2023/07/20 00:00:46;;;;;;;5.53;2.60;;;;;;;;;;5131319;28;20096;-62
2023/07/20 00:03:18;;;;;;;6.38;3.20;;;;;;;;;;5130830;27;20038;-61
2023/07/20 00:05:44;;;;;;;6.13;2.80;;;;;;;;;;5131393;27;20019;-62
2023/07/20 00:08:09;;;;;;;8.90;3.33;;;;;;;;;;5131100;27;20080;-63
2023/07/20 00:10:34;;;;;;;5.13;2.67;;;;;;;;;;5129960;28;20030;-62
2023/07/20 00:12:59;;;;;;;5.60;2.60;;;;;;;;;;5130911;28;20050;-62
2023/07/20 00:15:25;;;;;;;5.77;2.60;;;;;;;;;;5115147;28;20020;-62
2023/07/20 00:17:50;;;;;;;9.53;3.33;;;;;;;;;;5111013;28;20027;-61
2023/07/20 00:20:15;;;;;;;6.00;3.00;;;;;;;;;;5110623;28;20062;-62
2023/07/20 00:22:40;;;;;;;8.10;3.23;;;;;;;;;;5110446;28;20050;-62
2023/07/20 00:25:05;;;;;;;4.60;2.40;;;;;;;;;;5111032;28;20027;-61
2023/07/20 00:27:31;;;;;;;5.10;3.10;;;;;;;;;;5113514;28;20023;-62
2023/07/20 00:29:56;;;;;;;6.27;3.10;;;;;;;;;;5113606;28;20099;-62
2023/07/20 00:32:21;;;;;;;5.30;2.60;;;;;;;;;;5111146;28;20097;-61
2023/07/20 00:34:46;;;;;;;4.43;2.35;;;;;;;;;;5111647;28;20030;-62
2023/07/20 00:37:12;;;;;;;6.80;2.90;;;;;;;;;;5126586;27;20084;-62
2023/07/20 00:39:37;;;;;;;6.03;2.67;;;;;;;;;;5133402;27;20359;-62
2023/07/20 00:42:02;;;;;;;4.60;2.27;;;;;;;;;;5134956;27;20068;-61
2023/07/20 00:44:27;;;;;;;5.83;2.90;;;;;;;;;;5134242;27;20061;-62
2023/07/20 00:46:53;;;;;;;5.07;2.60;;;;;;;;;;5134678;27;20464;-61
2023/07/20 00:49:21;;;;;;;4.60;2.40;;;;;;;;;;5134695;27;20484;-62
2023/07/20 00:51:46;;;;;;;5.40;2.55;;;;;;;;;;5134218;27;20019;-62
2023/07/20 00:54:11;;;;;;;4.88;2.28;;;;;;;;;;5134260;27;20026;-62
2023/07/20 00:56:37;;;;;;;6.00;2.40;;;;;;;;;;5135254;27;20019;-60
2023/07/20 00:59:02;;;;;;;4.13;2.00;;;;;;;;;;5135630;27;20038;-62
2023/07/20 01:01:27;;;;;;;4.65;2.28;;;;;;;;;;5135635;27;20508;-61
2023/07/20 01:03:52;;;;;;;5.82;2.40;;;;;;;;;;5134904;27;20470;-62
2023/07/20 01:06:36;;;;;;;5.57;1.83;;;;;;;;;;5135169;27;20035;-62
2023/07/20 01:09:07;;;;;;;4.93;1.90;;;;;;;;;;5134573;27;20015;-61
2023/07/20 01:11:47;;;;;;;6.18;1.80;;;;;;;;;;5134383;27;20027;-61
2023/07/20 01:14:14;;;;;;;4.75;1.50;;;;;;;;;;5133257;27;20027;-61
2023/07/20 01:16:39;;;;;;;5.03;1.67;;;;;;;;;;5134107;27;20046;-63
2023/07/20 01:19:05;;;;;;;7.50;1.80;;;;;;;;;;5134261;27;20447;-61
2023/07/20 01:21:32;;;;;;;4.25;1.52;;;;;;;;;;5114342;27;20544;-62
2023/07/20 01:23:58;;;;;;;3.95;1.60;;;;;;;;;;5112771;28;20467;-61
2023/07/20 01:27:02;;;;;;;7.32;1.77;;;;;;;;;;5113276;28;20119;-60
2023/07/20 01:29:33;;;;;;;6.15;1.75;;;;;;;;;;5070108;28;20017;-59
2023/07/20 01:32:00;;;;;;;4.15;1.42;;;;;;;;;;5070195;28;20108;-62
2023/07/20 01:34:26;;;;;;;3.80;1.42;;;;;;;;;;5091359;28;20498;-63
2023/07/20 01:36:52;;;;;;;3.95;1.40;;;;;;;;;;5131787;27;20034;-61
2023/07/20 01:39:18;;;;;;;4.55;1.50;;;;;;;;;;5134843;27;20015;-62
2023/07/20 01:41:44;;;;;;;3.92;1.60;;;;;;;;;;5133451;27;20027;-62
2023/07/20 01:44:09;;;;;;;4.10;1.52;;;;;;;;;;5133237;27;20015;-62
2023/07/20 01:46:34;;;;;;;4.70;1.97;;;;;;;;;;5133449;27;20054;-63
2023/07/20 01:48:59;;;;;;;5.63;1.93;;;;;;;;;;5132935;27;20021;-62
2023/07/20 01:51:24;;;;;;;5.83;2.07;;;;;;;;;;5130286;27;20501;-62
2023/07/20 01:53:49;;;;;;;4.33;1.87;;;;;;;;;;5112022;28;20050;-59
2023/07/20 01:56:15;;;;;;;7.80;2.10;;;;;;;;;;5112342;28;20409;-62
2023/07/20 01:58:40;;;;;;;4.47;1.98;;;;;;;;;;5113529;28;20022;-60
2023/07/20 02:01:05;;;;;;;6.93;2.47;;;;;;;;;;5112975;27;20016;-61
2023/07/20 02:03:31;;;;;;;6.55;2.10;;;;;;;;;;5112557;28;20394;-61
2023/07/20 02:05:59;;;;;;;7.07;2.23;;;;;;;;;;5111447;28;20024;-61
2023/07/20 02:08:24;;;;;;;4.15;2.00;;;;;;;;;;5112769;28;20482;-61
2023/07/20 02:10:50;;;;;;;5.30;2.07;;;;;;;;;;5112847;28;20020;-61
2023/07/20 02:13:16;;;;;;;;;;;;;;;;;;5112904;28;20034;-60
2023/07/20 02:15:42;;;;;;;5.47;2.10;;;;;;;;;;5113041;28;19908;-61
2023/07/20 02:18:07;;;;;;;4.20;1.80;;;;;;;;;;5111324;28;20016;-60
2023/07/20 02:20:32;;;;;;;5.30;1.90;;;;;;;;;;5112999;28;20084;-60
2023/07/20 02:22:58;;;;;;;7.82;2.30;;;;;;;;;;5109445;28;20051;-60
2023/07/20 02:25:23;;;;;;;5.57;2.10;;;;;;;;;;5112810;28;20174;-60
2023/07/20 02:27:48;;;;;;;5.23;2.30;;;;;;;;;;5112076;28;20028;-62
2023/07/20 02:30:13;;;;;;;7.47;2.80;;;;;;;;;;5112686;28;20019;-60
2023/07/20 02:32:39;;;;;;;5.50;2.53;;;;;;;;;;5111626;28;20031;-61
2023/07/20 02:35:04;;;;;;;5.30;2.60;;;;;;;;;;5117684;27;20072;-59
2023/07/20 02:37:30;;;;;;;4.90;2.35;;;;;;;;;;5132817;27;20051;-60
2023/07/20 02:39:55;;;;;;;8.07;2.58;;;;;;;;;;5133619;27;20020;-62
2023/07/20 02:42:22;;;;;;;8.10;2.53;;;;;;;;;;5133214;27;20022;-60
2023/07/20 02:44:48;;;;;;;4.95;2.30;;;;;;;;;;5134890;27;20027;-58
2023/07/20 02:47:13;;;;;;;6.28;2.60;;;;;;;;;;5135457;27;20039;-62
2023/07/20 02:49:38;;;;;;;5.10;2.60;;;;;;;;;;5135131;27;20019;-63
2023/07/20 02:52:04;;;;;;;5.30;2.67;;;;;;;;;;5132993;27;20053;-62
2023/07/20 02:54:30;;;;;;;7.18;3.10;;;;;;;;;;5131774;27;20023;-61
2023/07/20 02:56:55;;;;;;;8.00;3.00;;;;;;;;;;5132403;27;20409;-62
2023/07/20 02:59:20;;;;;;;7.50;2.90;;;;;;;;;;5129562;27;20019;-61
2023/07/20 03:01:46;;;;;;;5.55;2.67;;;;;;;;;;5132186;27;20019;-62
2023/07/20 03:04:11;;;;;;;5.47;3.05;;;;;;;;;;5131234;27;20104;-61
2023/07/20 03:06:36;;;;;;;8.33;2.97;;;;;;;;;;5131967;27;20015;-61
2023/07/20 03:09:02;;;;;;;6.78;3.45;;;;;;;;;;5131883;27;20031;-62
2023/07/20 03:11:27;;;;;;;5.15;3.00;;;;;;;;;;5132052;27;20030;-63
2023/07/20 03:13:52;;;;;;;6.30;2.87;;;;;;;;;;5131511;27;20023;-62
2023/07/20 03:16:18;;;;;;;6.60;3.40;;;;;;;;;;5132044;27;20048;-61
2023/07/20 03:18:43;;;;;;;6.68;3.28;;;;;;;;;;5131739;27;20046;-62
2023/07/20 03:21:11;;;;;;;7.93;3.30;;;;;;;;;;5131720;27;20019;-62
2023/07/20 03:23:36;;;;;;;7.13;3.30;;;;;;;;;;5131426;27;20019;-62
2023/07/20 03:26:01;;;;;;;6.53;3.40;;;;;;;;;;5132221;27;20538;-61
2023/07/20 03:28:26;;;;;;;8.10;3.37;;;;;;;;;;5132010;27;20019;-62
2023/07/20 03:30:55;;;;;;;7.00;3.60;;;;;;;;;;5131570;27;20020;-62
2023/07/20 03:33:25;;;;;;;6.05;3.40;;;;;;;;;;5131056;27;20415;-63
2023/07/20 03:35:50;;;;;;;7.70;3.97;;;;;;;;;;5131500;27;20481;-62
2023/07/20 03:38:16;;;;;;;8.07;3.58;;;;;;;;;;5131628;27;20102;-62
2023/07/20 03:40:48;;;;;;;6.47;3.60;;;;;;;;;;5131782;27;20019;-62
2023/07/20 03:43:13;;;;;;;8.40;3.60;;;;;;;;;;5131098;27;20030;-62
2023/07/20 03:45:39;;;;;;;7.25;3.72;;;;;;;;;;5131541;28;20015;-64
2023/07/20 03:48:05;;;;;;;5.72;3.38;;;;;;;;;;5132078;27;20022;-63
2023/07/20 03:50:31;;;;;;;6.03;3.33;;;;;;;;;;5131427;27;20095;-63
2023/07/20 03:52:56;;;;;;;6.67;3.73;;;;;;;;;;5131058;28;20110;-60
2023/07/20 03:55:21;;;;;;;7.37;3.63;;;;;;;;;;5131739;28;20200;-61
2023/07/20 03:57:46;;;;;;;7.70;3.47;;;;;;;;;;5131761;28;20076;-61
2023/07/20 04:00:12;;;;;;;7.07;3.67;;;;;;;;;;5131451;28;20381;-61
2023/07/20 04:02:37;;;;;;;6.47;3.10;;;;;;;;;;5130693;27;20011;-61
2023/07/20 04:05:02;;;;;;;9.67;3.73;;;;;;;;;;5129732;27;20495;-60
2023/07/20 04:07:27;;;;;;;6.00;3.07;;;;;;;;;;5131505;27;20088;-61
2023/07/20 04:09:52;;;;;;;8.17;3.47;;;;;;;;;;5131532;27;20382;-62
2023/07/20 04:12:18;;;;;;;7.30;3.67;;;;;;;;;;5134810;27;20022;-63
2023/07/20 04:14:43;;;;;;;7.72;3.50;;;;;;;;;;5135088;27;20023;-62
2023/07/20 04:17:08;;;;;;;6.30;3.27;;;;;;;;;;5135292;27;20015;-61
2023/07/20 04:19:33;;;;;;;7.83;3.80;;;;;;;;;;5135412;27;20023;-61
2023/07/20 04:21:58;;;;;;;7.37;3.47;;;;;;;;;;5135039;27;20439;-61
2023/07/20 04:24:24;;;;;;;7.67;3.90;;;;;;;;;;5134956;27;20023;-61
2023/07/20 04:26:49;;;;;;;7.33;3.43;;;;;;;;;;5135017;27;20095;-63
2023/07/20 04:29:14;;;;;;;6.33;3.90;;;;;;;;;;5135267;27;20092;-62
2023/07/20 04:31:39;;;;;;;6.13;3.40;;;;;;;;;;5134851;27;20027;-61
2023/07/20 04:34:04;;;;;;;6.87;3.00;;;;;;;;;;5133212;27;20019;-62
2023/07/20 04:36:29;;;;;;;8.18;3.25;;;;;;;;;;5134943;27;20098;-62
2023/07/20 04:38:54;;;;;;;6.72;2.90;;;;;;;;;;5135326;27;20474;-63
2023/07/20 04:41:20;;;;;;;9.33;3.47;;;;;;;;;;5134910;27;20023;-61
2023/07/20 04:43:45;;;;;;;8.75;3.47;;;;;;;;;;5134381;27;20023;-61
2023/07/20 04:46:11;;;;;;;9.60;3.53;;;;;;;;;;5134600;27;20102;-62
2023/07/20 04:48:36;;;;;;;7.13;3.90;;;;;;;;;;5135048;27;20008;-62
2023/07/20 04:51:03;;;;;;;7.90;3.10;;;;;;;;;;5135361;27;20042;-60
2023/07/20 04:53:28;;;;;;;7.00;3.00;;;;;;;;;;5135506;27;20545;-61
2023/07/20 04:55:54;;;;;;;6.40;2.90;;;;;;;;;;5134799;27;20037;-61
2023/07/20 04:58:19;;;;;;;7.65;3.47;;;;;;;;;;5134881;27;20015;-61
2023/07/20 05:00:45;;;;;;;8.82;3.90;;;;;;;;;;5134984;27;20020;-62
2023/07/20 05:03:10;;;;;;;9.60;3.50;;;;;;;;;;5136693;27;20069;-61
2023/07/20 05:05:35;;;;;;;11.10;4.15;;;;;;;;;;5137176;27;20023;-61
2023/07/20 05:08:00;;;;;;;11.13;4.80;;;;;;;;;;5136956;27;20019;-61
2023/07/20 05:10:25;;;;;;;6.90;3.37;;;;;;;;;;5118896;27;20020;-61
2023/07/20 05:12:50;;;;;;;7.80;3.90;;;;;;;;;;5113027;28;20027;-62
2023/07/20 05:15:16;;;;;;;9.07;4.50;;;;;;;;;;5113844;28;20413;-62
2023/07/20 05:17:41;;;;;;;8.47;5.00;;;;;;;;;;5114879;28;20023;-63
2023/07/20 05:20:06;;;;;;;5.97;3.33;;;;;;;;;;5114545;28;20016;-63
2023/07/20 05:22:31;;;;;;;7.22;3.45;;;;;;;;;;5112974;28;20020;-61
2023/07/20 05:24:57;;;;;;;8.30;4.10;;;;;;;;;;5114696;28;20019;-62
2023/07/20 05:27:22;;;;;;;8.03;3.57;;;;;;;;;;5115395;28;20023;-62
2023/07/20 05:29:47;;;;;;;9.43;3.80;;;;;;;;;;5114022;28;20486;-62
2023/07/20 05:32:13;;;;;;;6.77;3.27;;;;;;;;;;5112275;28;20031;-62
2023/07/20 05:34:38;;;;;;;6.88;2.92;;;;;;;;;;5133498;27;20076;-62
2023/07/20 05:37:03;;;;;;;6.20;3.33;;;;;;;;;;5134020;27;20054;-61
2023/07/20 05:39:28;;;;;;;6.03;3.30;;;;;;;;;;5133762;27;20018;-62
2023/07/20 05:41:53;;;;;;;6.15;2.90;;;;;;;;;;5133848;27;20382;-62
2023/07/20 05:44:19;;;;;;;6.57;3.35;;;;;;;;;;5133025;27;20024;-63
2023/07/20 05:46:44;;;;;;;8.37;2.97;;;;;;;;;;5133796;27;20031;-63
2023/07/20 05:49:09;;;;;;;6.67;3.03;;;;;;;;;;5133618;27;20019;-61
2023/07/20 05:51:34;;;;;;;10.20;3.47;;;;;;;;;;5133600;27;20023;-63
2023/07/20 05:54:00;;;;;;;6.65;2.92;;;;;;;;;;5133110;27;20071;-62
2023/07/20 05:56:25;;;;;;;7.53;3.23;;;;;;;;;;5134055;27;20027;-63
2023/07/20 05:58:50;;;;;;;12.02;3.45;;;;;;;;;;5133290;27;20029;-61
2023/07/20 06:01:15;;;;;;;7.30;2.90;;;;;;;;;;5133518;27;20483;-60
2023/07/20 06:03:41;;;;;;;9.00;3.47;;;;;;;;;;5132559;27;20087;-63
2023/07/20 06:06:06;;;;;;;9.48;3.22;;;;;;;;;;5133151;27;20113;-63
2023/07/20 06:08:31;;;;;;;7.13;2.80;;;;;;;;;;5133304;27;20019;-61
2023/07/20 06:10:57;;;;;;;6.90;3.13;;;;;;;;;;5131908;27;20023;-62
2023/07/20 06:13:23;;;;;;;5.68;3.10;;;;;;;;;;5132606;27;20050;-62
2023/07/20 06:15:48;;;;;;;6.18;3.08;;;;;;;;;;5121624;27;20019;-61
2023/07/20 06:18:13;;;;;;;7.18;3.20;;;;;;;;;;5112595;27;20015;-61
2023/07/20 06:20:39;;;;;;;5.82;3.00;;;;;;;;;;5112154;27;20042;-63
2023/07/20 06:23:04;;;;;;;8.37;3.17;;;;;;;;;;5111941;28;20439;-62
2023/07/20 06:25:29;;;;;;;8.67;3.87;;;;;;;;;;5112478;28;20481;-62
2023/07/20 06:27:55;;;;;;;9.70;5.40;;;;;;;;;;5112148;28;20108;-61
2023/07/20 06:30:20;;;;;;;15.95;6.05;;;;;;;;;;5112173;28;20023;-64
2023/07/20 06:32:45;;;;;;;12.83;6.53;;;;;;;;;;5125111;27;20148;-63
2023/07/20 06:35:11;;;;;;;7.33;4.50;;;;;;;;;;5132119;27;20435;-64
2023/07/20 06:37:36;;;;;;;10.83;5.13;;;;;;;;;;5132951;27;20023;-64
2023/07/20 06:40:04;;;;;;;11.83;5.73;;;;;;;;;;5132765;27;20711;-62
2023/07/20 06:42:29;;;;;;;8.85;5.60;;;;;;;;;;5132116;27;20019;-63
2023/07/20 06:44:55;;;;;;;9.18;5.43;;;;;;;;;;5132051;27;20026;-63
2023/07/20 06:47:20;;;;;;;14.17;8.30;;;;;;;;;;5132411;27;20099;-65
2023/07/20 06:49:45;;;;;;;11.57;6.50;;;;;;;;;;5132260;27;20378;-65
2023/07/20 06:52:10;;;;;;;12.37;7.53;;;;;;;;;;5132220;27;20015;-63
2023/07/20 06:54:35;;;;;;;8.97;6.37;;;;;;;;;;5131797;27;20075;-65
2023/07/20 06:57:00;;;;;;;11.25;8.18;;;;;;;;;;5132257;27;20015;-64
2023/07/20 06:59:26;;;;;;;11.27;8.47;;;;;;;;;;5132341;27;20068;-64
2023/07/20 07:01:51;;;;;;;11.83;9.20;;;;;;;;;;5130856;27;20478;-64
2023/07/20 07:04:16;;;;;;;14.27;8.93;;;;;;;;;;5131686;27;20113;-65
2023/07/20 07:06:41;;;;;;;12.70;9.23;;;;;;;;;;5132000;27;20086;-66
2023/07/20 07:09:08;;;;;;;14.27;10.05;;;;;;;;;;5132418;27;20026;-65
2023/07/20 07:11:33;;;;;;;16.80;9.95;;;;;;;;;;5132019;27;20018;-63
2023/07/20 07:13:58;;;;;;;11.33;8.17;;;;;;;;;;5131440;27;20595;-64
2023/07/20 07:16:23;;;;;;;8.93;5.87;;;;;;;;;;5132132;27;20023;-63
2023/07/20 07:18:50;;;;;;;12.25;6.63;;;;;;;;;;5132247;27;20488;-62
2023/07/20 07:21:15;;;;;;;8.32;5.15;;;;;;;;;;5124405;27;20070;-65
2023/07/20 07:23:40;;;;;;;9.30;6.53;;;;;;;;;;5111984;28;20015;-64
2023/07/20 07:26:05;;;;;;;10.03;6.03;;;;;;;;;;5114028;28;20023;-64
2023/07/20 07:28:31;;;;;;;13.67;5.90;;;;;;;;;;5111891;28;20024;-63
2023/07/20 07:30:57;;;;;;;11.25;5.70;;;;;;;;;;5119607;27;20030;-64
2023/07/20 07:33:22;;;;;;;10.27;6.03;;;;;;;;;;5131242;27;20015;-63
2023/07/20 07:35:47;;;;;;;11.45;6.95;;;;;;;;;;5131697;27;20164;-62
2023/07/20 07:38:12;;;;;;;11.20;7.00;;;;;;;;;;5131797;27;20386;-64
2023/07/20 07:40:38;;;;;;;12.80;7.87;;;;;;;;;;5131757;27;20026;-63
2023/07/20 07:43:03;;;;;;;11.03;6.10;;;;;;;;;;5131220;28;20098;-62
2023/07/20 07:45:28;;;;;;;13.23;6.47;;;;;;;;;;5130791;27;20115;-64
2023/07/20 07:47:53;;;;;;;10.30;6.33;;;;;;;;;;5135985;27;20027;-63
2023/07/20 07:50:18;;;;;;;14.03;6.47;;;;;;;;;;5136003;27;20022;-64
2023/07/20 07:52:44;;;;;;;10.83;6.27;;;;;;;;;;5135317;27;20023;-64
2023/07/20 07:55:09;;;;;;;12.33;6.20;;;;;;;;;;5135883;27;20016;-63
2023/07/20 07:57:34;;;;;;;10.87;5.93;;;;;;;;;;5136072;27;20030;-64
2023/07/20 07:59:59;;;;;;;13.30;5.53;;;;;;;;;;5135995;27;20558;-61
2023/07/20 08:02:24;;;;;;;11.13;4.77;;;;;;;;;;5135711;27;20023;-64
2023/07/20 08:04:52;;;;;;;16.00;5.23;;;;;;;;;;5135886;27;20535;-64
2023/07/20 08:07:17;;;;;;;20.48;5.63;;;;;;;;;;5135510;27;20019;-64
2023/07/20 08:09:42;;;;;;;13.07;6.40;;;;;;;;;;5135746;27;20679;-64
2023/07/20 08:12:07;;;;;;;9.07;4.93;;;;;;;;;;5135952;27;20080;-64
2023/07/20 08:14:32;;;;;;;7.55;4.80;;;;;;;;;;5134993;27;20107;-65
2023/07/20 08:16:58;;;;;;;11.60;6.13;;;;;;;;;;5135544;27;20051;-63
2023/07/20 08:19:23;;;;;;;8.02;5.18;;;;;;;;;;5135165;27;20026;-64
2023/07/20 08:21:48;;;;;;;9.35;5.60;;;;;;;;;;5135127;27;20086;-64
2023/07/20 08:24:14;;;;;;;7.63;5.30;;;;;;;;;;5134994;27;20095;-64
2023/07/20 08:26:39;;;;;;;10.90;5.30;;;;;;;;;;5133474;27;20034;-65
2023/07/20 08:29:04;;;;;;;7.40;4.43;;;;;;;;;;5119081;27;20012;-65
2023/07/20 08:31:29;;;;;;;7.82;5.40;;;;;;;;;;5134784;27;20018;-65
2023/07/20 08:33:56;;;;;;;7.70;5.47;;;;;;;;;;5134749;27;20027;-65
2023/07/20 08:36:21;;;;;;;9.70;6.88;;;;;;;;;;5135376;27;20023;-65
2023/07/20 08:38:47;;;;;;;8.33;5.33;;;;;;;;;;5134805;27;20019;-66
2023/07/20 08:41:13;;;;;;;11.30;5.07;;;;;;;;;;5134852;27;20072;-66
2023/07/20 08:43:42;;;;;;;7.05;5.22;;;;;;;;;;5134449;27;20015;-64
2023/07/20 08:46:07;;;;;;;7.70;5.07;;;;;;;;;;5135060;27;20106;-63
2023/07/20 08:48:33;;;;;;;5.75;4.05;;;;;;;;;;5134757;27;20539;-64
2023/07/20 08:51:00;;;;;;;6.18;4.10;;;;;;;;;;5134720;27;20022;-65
2023/07/20 08:53:25;;;;;;;8.63;5.45;;;;;;;;;;5134696;27;20055;-63
2023/07/20 08:55:52;;;;;;;9.47;5.37;;;;;;;;;;5134744;27;20054;-62
2023/07/20 08:58:17;;;;;;;6.53;4.82;;;;;;;;;;5135331;27;20041;-65
2023/07/20 09:00:43;;;;;;;5.97;4.45;;;;;;;;;;5135135;27;20011;-65
2023/07/20 09:03:08;;;;;;;9.02;4.63;;;;;;;;;;5134797;27;20027;-64
2023/07/20 09:05:35;;;;;;;7.93;4.95;;;;;;;;;;5135005;27;20117;-63
2023/07/20 09:08:00;;;;;;;7.18;4.53;;;;;;;;;;5135482;27;20019;-65
2023/07/20 09:10:25;;;;;;;8.47;4.90;;;;;;;;;;5134422;27;20022;-66
2023/07/20 09:12:50;;;;;;;7.27;4.40;;;;;;;;;;5133365;27;20054;-63
2023/07/20 09:15:16;;;;;;;6.63;3.57;;;;;;;;;;5134391;27;20115;-65
2023/07/20 09:17:48;;;;;;;7.60;3.63;;;;;;;;;;5134338;27;20027;-65
2023/07/20 09:20:14;;;;;;;6.78;4.03;;;;;;;;;;5134245;27;20557;-64
2023/07/20 09:22:39;;;;;;;6.70;4.35;;;;;;;;;;5133251;27;20117;-65
2023/07/20 09:25:13;;;;;;;8.15;4.00;;;;;;;;;;5134035;27;20019;-64
2023/07/20 09:27:38;;;;;;;5.78;3.63;;;;;;;;;;5133859;27;20487;-65
2023/07/20 09:30:04;;;;;;;6.47;4.07;;;;;;;;;;5133914;27;20053;-65
2023/07/20 09:32:29;;;;;;;6.30;3.95;;;;;;;;;;5133290;27;20501;-62
2023/07/20 09:34:54;;;;;;;6.63;3.50;;;;;;;;;;5112662;27;20020;-65
2023/07/20 09:37:20;;;;;;;5.20;3.30;;;;;;;;;;5113358;28;20024;-65
2023/07/20 09:39:46;;;;;;;5.13;3.33;;;;;;;;;;5113479;28;20020;-65
2023/07/20 09:42:12;;;;;;;6.07;3.57;;;;;;;;;;5112932;28;20021;-65
2023/07/20 09:44:38;;;;;;;6.47;3.83;;;;;;;;;;5112552;28;20103;-63
2023/07/20 09:47:03;;;;;;;4.70;3.30;;;;;;;;;;5113053;28;20114;-63
2023/07/20 09:49:28;;;;;;;5.10;2.87;;;;;;;;;;5113380;27;20022;-64
2023/07/20 09:51:53;;;;;;;5.20;3.27;;;;;;;;;;5113141;28;20020;-63
2023/07/20 09:54:21;;;;;;;6.40;3.00;;;;;;;;;;5112709;27;20424;-65
2023/07/20 09:56:48;;;;;;;4.80;3.60;;;;;;;;;;5112943;28;20026;-64
2023/07/20 09:59:13;;;;;;;4.70;3.15;;;;;;;;;;5112864;28;20070;-63
2023/07/20 10:01:41;;;;;;;4.30;3.28;;;;;;;;;;5113053;28;20471;-62
2023/07/20 10:04:08;;;;;;;4.88;3.38;;;;;;;;;;5112374;28;20123;-61
2023/07/20 10:06:34;;;;;;;5.43;3.40;;;;;;;;;;5113974;27;20055;-64
2023/07/20 10:09:01;;;;;;;5.13;3.67;;;;;;;;;;5112876;28;20081;-63
2023/07/20 10:11:29;;;;;;;6.03;3.88;;;;;;;;;;5113219;28;20027;-66
2023/07/20 10:13:57;;;;;;;5.95;4.40;;;;;;;;;;5112948;28;20471;-65
2023/07/20 10:16:26;;;;;;;6.22;4.53;;;;;;;;;;5112737;28;20072;-64
2023/07/20 10:19:00;;;;;;;7.25;5.40;;;;;;;;;;5112554;28;20024;-64
2023/07/20 10:21:25;;;;;;;6.90;5.25;;;;;;;;;;5112459;28;20023;-64
2023/07/20 10:23:50;;;;;;;8.05;5.20;;;;;;;;;;5111720;28;20125;-64
2023/07/20 10:26:16;;;;;;;7.45;5.07;;;;;;;;;;5112131;28;20068;-63
2023/07/20 10:28:41;;;;;;;7.90;4.73;;;;;;;;;;5120007;27;20027;-64
2023/07/20 10:31:08;;;;;;;8.10;6.35;;;;;;;;;;5131838;27;20061;-63
2023/07/20 10:33:33;;;;;;;9.63;6.30;;;;;;;;;;5131992;27;20058;-64
2023/07/20 10:36:03;;;;;;;6.40;5.13;;;;;;;;;;5132743;27;20051;-64
2023/07/20 10:38:41;;;;;;;7.57;5.70;;;;;;;;;;5132412;27;21023;-64
2023/07/20 10:41:24;;;;;;;7.72;5.18;;;;;;;;;;5132334;27;20039;-63
2023/07/20 10:43:49;;;;;;;7.38;5.03;;;;;;;;;;5131605;27;20394;-64
2023/07/20 10:46:14;;;;;;;7.27;4.97;;;;;;;;;;5132437;27;20019;-63
2023/07/20 10:49:04;;;;;;;7.37;5.77;;;;;;;;;;5132407;27;20490;-65
2023/07/20 10:51:29;;;;;;;7.90;5.25;;;;;;;;;;5121514;27;20092;-65
2023/07/20 10:53:56;;;;;;;6.60;4.80;;;;;;;;;;5131760;27;20478;-63
2023/07/20 10:56:23;;;;;;;7.10;5.00;;;;;;;;;;5132574;27;20031;-65
2023/07/20 10:58:48;;;;;;;6.13;4.15;;;;;;;;;;5131019;27;20023;-66
2023/07/20 11:01:15;;;;;;;6.53;3.90;;;;;;;;;;5132229;27;20037;-65
2023/07/20 11:03:40;;;;;;;6.20;3.95;;;;;;;;;;5131264;27;20035;-62
2023/07/20 11:06:24;;;;;;;5.20;3.00;;;;;;;;;;5131968;27;20029;-63
2023/07/20 11:08:54;;;;;;;7.70;3.88;;;;;;;;;;5132207;27;20076;-63
2023/07/20 11:11:26;;;;;;;6.00;3.60;;;;;;;;;;5119127;27;20479;-63
2023/07/20 11:13:58;;;;;;;5.68;3.40;;;;;;;;;;5110818;28;20023;-64
2023/07/20 11:16:33;;;;;;;6.45;3.83;;;;;;;;;;5111626;28;20020;-64
2023/07/20 11:18:59;;;;;;;8.63;4.57;;;;;;;;;;5111239;28;20497;-63
2023/07/20 11:21:24;;;;;;;5.78;3.95;;;;;;;;;;5110472;28;20098;-64
2023/07/20 11:23:50;;;;;;;6.33;3.80;;;;;;;;;;5110794;28;20046;-63
2023/07/20 11:26:15;;;;;;;5.00;3.70;;;;;;;;;;5111180;28;20560;-64
2023/07/20 11:28:40;;;;;;;5.55;3.97;;;;;;;;;;5127734;27;20008;-63
2023/07/20 11:31:06;;;;;;;6.30;4.40;;;;;;;;;;5131446;27;20351;-64
2023/07/20 11:33:31;;;;;;;5.53;3.87;;;;;;;;;;5131029;27;20011;-63
2023/07/20 11:35:56;;;;;;;6.13;4.05;;;;;;;;;;5131806;27;20019;-63
2023/07/20 11:38:23;;;;;;;6.43;4.72;;;;;;;;;;5131642;27;20458;-63
2023/07/20 11:40:49;;;;;;;6.85;5.28;;;;;;;;;;5131344;27;20045;-64
2023/07/20 11:43:14;;;;;;;6.03;4.93;;;;;;;;;;5131069;27;20467;-64
2023/07/20 11:45:39;;;;;;;6.82;5.32;;;;;;;;;;5131595;27;20026;-64
2023/07/20 11:48:05;;;;;;;6.47;4.93;;;;;;;;;;5131720;28;20046;-64
2023/07/20 11:50:30;;;;;;;6.80;5.43;;;;;;;;;;5131048;27;20023;-64
2023/07/20 11:52:55;;;;;;;7.47;5.10;;;;;;;;;;5130995;28;20015;-62
2023/07/20 11:55:21;;;;;;;7.18;5.47;;;;;;;;;;5131093;27;20474;-64
2023/07/20 11:58:02;;;;;;;7.05;4.75;;;;;;;;;;5131382;27;20106;-64
2023/07/20 12:00:27;;;;;;;7.25;4.63;;;;;;;;;;5131366;27;20594;-63
2023/07/20 12:02:53;;;;;;;6.10;4.50;;;;;;;;;;5130671;28;20419;-64
2023/07/20 12:05:18;;;;;;;8.85;5.25;;;;;;;;;;5131573;27;20419;-64
2023/07/20 12:07:44;;;;;;;6.22;4.65;;;;;;;;;;5131349;27;20023;-65
2023/07/20 12:10:12;;;;;;;5.60;4.63;;;;;;;;;;5131147;28;20020;-65
2023/07/20 12:12:38;;;;;;;5.72;4.53;;;;;;;;;;5130629;27;20019;-62
2023/07/20 12:15:14;;;;;;;5.63;4.30;;;;;;;;;;5131362;27;20022;-64
2023/07/20 12:17:46;;;;;;;7.25;4.20;;;;;;;;;;5116257;27;20030;-63
2023/07/20 12:20:11;;;;;;;5.60;3.97;;;;;;;;;;5110778;28;20102;-63
2023/07/20 12:22:41;;;;;;;5.22;3.80;;;;;;;;;;5110390;28;20043;-65
2023/07/20 12:25:07;;;;;;;6.05;3.92;;;;;;;;;;5110746;28;20089;-65
2023/07/20 12:27:32;;;;;;;;;;;;;;;;;;5128112;27;20027;-64
2023/07/20 12:29:57;;;;;;;7.10;4.60;;;;;;;;;;5130901;27;19903;-63
2023/07/20 12:32:22;;;;;;;7.13;4.47;;;;;;;;;;5132992;27;20031;-64
2023/07/20 12:34:48;;;;;;;8.73;4.83;;;;;;;;;;5134456;27;20110;-60
2023/07/20 12:37:13;;;;;;;6.80;5.17;;;;;;;;;;5134921;27;20042;-65
2023/07/20 12:39:39;;;;;;;9.97;6.00;;;;;;;;;;5134693;27;20027;-63
2023/07/20 12:42:04;;;;;;;6.30;5.22;;;;;;;;;;5134923;27;20023;-62
2023/07/20 12:44:29;;;;;;;7.05;5.15;;;;;;;;;;5134007;27;20027;-63
2023/07/20 12:46:55;;;;;;;6.97;5.30;;;;;;;;;;5134841;27;20026;-64
2023/07/20 12:49:20;;;;;;;6.43;5.23;;;;;;;;;;5134638;27;20030;-62
2023/07/20 12:51:45;;;;;;;7.70;6.00;;;;;;;;;;5134792;27;20018;-63
2023/07/20 12:54:10;;;;;;;6.70;5.43;;;;;;;;;;5133929;27;20484;-62
2023/07/20 12:56:36;;;;;;;8.90;5.23;;;;;;;;;;5134624;27;20039;-63
2023/07/20 12:59:02;;;;;;;5.55;4.25;;;;;;;;;;5134783;27;20420;-64
2023/07/20 13:01:28;;;;;;;5.70;4.05;;;;;;;;;;5134756;27;20023;-63
2023/07/20 13:03:54;;;;;;;6.60;4.82;;;;;;;;;;5133460;27;20447;-65
2023/07/20 13:06:19;;;;;;;5.43;3.97;;;;;;;;;;5134239;27;20532;-63
2023/07/20 13:08:44;;;;;;;6.15;3.92;;;;;;;;;;5134319;27;20054;-64
2023/07/20 13:11:10;;;;;;;6.10;3.53;;;;;;;;;;5134445;27;20011;-63
2023/07/20 13:13:35;;;;;;;4.70;2.60;;;;;;;;;;5133293;27;20521;-63
2023/07/20 13:16:00;;;;;;;6.00;3.97;;;;;;;;;;5134168;27;20023;-63
2023/07/20 13:18:25;;;;;;;4.40;2.80;;;;;;;;;;5134180;27;20411;-63
2023/07/20 13:20:50;;;;;;;4.93;3.00;;;;;;;;;;5132755;27;20023;-65
2023/07/20 13:23:15;;;;;;;3.83;2.20;;;;;;;;;;5120312;27;20055;-65
2023/07/20 13:25:41;;;;;;;4.43;2.40;;;;;;;;;;5125983;27;20072;-63
2023/07/20 13:28:07;;;;;;;5.85;3.00;;;;;;;;;;5133964;27;20064;-63
2023/07/20 13:30:33;;;;;;;4.20;2.28;;;;;;;;;;5134096;27;20027;-65
2023/07/20 13:32:58;;;;;;;4.60;2.40;;;;;;;;;;5133451;27;20015;-65
2023/07/20 13:35:23;;;;;;;5.00;2.83;;;;;;;;;;5133617;27;20386;-65
2023/07/20 13:37:49;;;;;;;4.40;2.38;;;;;;;;;;5133504;27;20469;-65
2023/07/20 13:40:16;;;;;;;4.13;2.40;;;;;;;;;;5133715;27;20060;-63
2023/07/20 13:42:42;;;;;;;4.68;2.17;;;;;;;;;;5133096;27;20094;-63
2023/07/20 13:45:07;;;;;;;4.47;2.00;;;;;;;;;;5133021;27;20110;-63
2023/07/20 13:47:32;;;;;;;4.45;2.10;;;;;;;;;;5133612;27;20030;-65
2023/07/20 13:49:58;;;;;;;5.10;2.07;;;;;;;;;;5133397;27;20016;-64
2023/07/20 13:52:23;;;;;;;4.90;2.30;;;;;;;;;;5133360;27;20409;-65
2023/07/20 13:54:48;;;;;;;5.40;2.27;;;;;;;;;;5132678;27;20042;-66
2023/07/20 13:57:14;;;;;;;4.20;2.00;;;;;;;;;;5133466;27;20088;-65
2023/07/20 13:59:40;;;;;;;4.30;2.30;;;;;;;;;;5133620;27;20023;-64
2023/07/20 14:02:05;;;;;;;4.53;2.00;;;;;;;;;;5133228;27;20102;-64
2023/07/20 14:04:30;;;;;;;4.07;2.22;;;;;;;;;;5132595;27;20081;-63
2023/07/20 14:06:55;;;;;;;4.37;2.13;;;;;;;;;;5133149;27;20047;-63
2023/07/20 14:09:20;;;;;;;4.53;2.20;;;;;;;;;;5133164;27;20022;-64
2023/07/20 14:11:46;;;;;;;3.77;1.90;;;;;;;;;;5133194;27;20015;-64
2023/07/20 14:14:11;;;;;;;3.50;1.77;;;;;;;;;;5132427;27;20011;-64
2023/07/20 14:16:36;;;;;;;3.60;1.60;;;;;;;;;;5133074;27;20026;-65
2023/07/20 14:19:01;;;;;;;3.72;1.70;;;;;;;;;;5133130;27;20478;-65
2023/07/20 14:21:27;;;;;;;5.10;1.40;;;;;;;;;;5133127;27;20024;-65
2023/07/20 14:23:55;;;;;;;3.33;1.33;;;;;;;;;;5132349;27;20015;-64
2023/07/20 14:26:20;;;;;;;3.42;1.45;;;;;;;;;;5134377;27;20035;-64
2023/07/20 14:28:46;;;;;;;3.88;1.40;;;;;;;;;;5127573;27;20019;-64
2023/07/20 14:31:11;;;;;;;3.23;1.37;;;;;;;;;;5114661;28;20016;-64
2023/07/20 14:33:36;;;;;;;3.27;1.30;;;;;;;;;;5114478;28;20016;-64
2023/07/20 14:36:01;;;;;;;3.33;1.60;;;;;;;;;;5113534;28;20109;-64